sensor_id;sensor_type;location;lat;lon;timestamp;P1;durP1;ratioP1;P2;durP2;ratioP2
4971;SDS011;2501;51.214;6.768;2023-06-24T00:01:46;14.20;;;8.90;;
4971;SDS011;2501;51.214;6.768;2023-06-24T00:04:15;11.88;;;8.70;;
4971;SDS011;2501;51.214;6.768;2023-06-24T00:06:46;10.95;;;8.90;;
4971;SDS011;2501;51.214;6.768;2023-06-24T00:09:17;14.30;;;8.88;;
4971;SDS011;2501;51.214;6.768;2023-06-24T00:11:46;11.57;;;8.60;;
4971;SDS011;2501;51.214;6.768;2023-06-24T00:14:15;12.45;;;8.90;;
4971;SDS011;2501;51.214;6.768;2023-06-24T00:16:43;18.02;;;9.40;;
4971;SDS011;2501;51.214;6.768;2023-06-24T00:19:16;10.73;;;9.07;;
4971;SDS011;2501;51.214;6.768;2023-06-24T00:21:49;15.50;;;10.20;;
4971;SDS011;2501;51.214;6.768;2023-06-24T00:24:18;11.77;;;9.02;;
4971;SDS011;2501;51.214;6.768;2023-06-24T00:26:51;15.75;;;9.80;;
4971;SDS011;2501;51.214;6.768;2023-06-24T00:29:19;16.80;;;10.43;;
4971;SDS011;2501;51.214;6.768;2023-06-24T00:31:48;13.93;;;10.13;;
4971;SDS011;2501;51.214;6.768;2023-06-24T00:34:16;14.30;;;10.10;;
4971;SDS011;2501;51.214;6.768;2023-06-24T00:36:48;12.23;;;10.07;;
4971;SDS011;2501;51.214;6.768;2023-06-24T00:39:16;16.30;;;9.90;;
4971;SDS011;2501;51.214;6.768;2023-06-24T00:41:44;14.38;;;8.73;;
4971;SDS011;2501;51.214;6.768;2023-06-24T00:44:13;12.25;;;9.45;;
4971;SDS011;2501;51.214;6.768;2023-06-24T00:46:42;11.52;;;9.40;;
4971;SDS011;2501;51.214;6.768;2023-06-24T00:49:10;14.43;;;8.82;;
4971;SDS011;2501;51.214;6.768;2023-06-24T00:51:41;11.48;;;8.52;;
4971;SDS011;2501;51.214;6.768;2023-06-24T00:54:18;17.00;;;9.03;;
4971;SDS011;2501;51.214;6.768;2023-06-24T00:56:47;14.05;;;8.60;;
4971;SDS011;2501;51.214;6.768;2023-06-24T00:59:16;12.85;;;9.10;;
4971;SDS011;2501;51.214;6.768;2023-06-24T01:01:45;15.20;;;9.15;;
4971;SDS011;2501;51.214;6.768;2023-06-24T01:04:14;14.05;;;9.73;;
4971;SDS011;2501;51.214;6.768;2023-06-24T01:06:45;11.57;;;9.00;;
4971;SDS011;2501;51.214;6.768;2023-06-24T01:09:13;11.15;;;8.73;;
4971;SDS011;2501;51.214;6.768;2023-06-24T01:11:45;14.60;;;8.80;;
4971;SDS011;2501;51.214;6.768;2023-06-24T01:14:13;15.60;;;9.07;;
4971;SDS011;2501;51.214;6.768;2023-06-24T01:16:47;11.63;;;8.85;;
4971;SDS011;2501;51.214;6.768;2023-06-24T01:19:42;12.82;;;8.70;;
4971;SDS011;2501;51.214;6.768;2023-06-24T01:22:24;13.60;;;9.55;;
4971;SDS011;2501;51.214;6.768;2023-06-24T01:25:08;12.40;;;8.90;;
4971;SDS011;2501;51.214;6.768;2023-06-24T01:28:05;10.37;;;8.70;;
4971;SDS011;2501;51.214;6.768;2023-06-24T01:30:54;11.15;;;9.05;;
4971;SDS011;2501;51.214;6.768;2023-06-24T01:33:42;10.98;;;8.07;;
4971;SDS011;2501;51.214;6.768;2023-06-24T01:36:15;12.00;;;8.98;;
4971;SDS011;2501;51.214;6.768;2023-06-24T01:38:47;17.67;;;8.70;;
4971;SDS011;2501;51.214;6.768;2023-06-24T01:41:21;11.80;;;8.90;;
4971;SDS011;2501;51.214;6.768;2023-06-24T01:43:52;12.27;;;9.02;;
4971;SDS011;2501;51.214;6.768;2023-06-24T01:46:23;20.25;;;9.20;;
4971;SDS011;2501;51.214;6.768;2023-06-24T01:48:58;13.70;;;9.20;;
4971;SDS011;2501;51.214;6.768;2023-06-24T01:51:30;12.27;;;8.43;;
4971;SDS011;2501;51.214;6.768;2023-06-24T01:54:02;14.43;;;9.27;;
4971;SDS011;2501;51.214;6.768;2023-06-24T01:56:33;12.65;;;9.00;;
4971;SDS011;2501;51.214;6.768;2023-06-24T01:59:05;13.93;;;8.83;;
4971;SDS011;2501;51.214;6.768;2023-06-24T02:01:35;11.18;;;8.40;;
4971;SDS011;2501;51.214;6.768;2023-06-24T02:04:09;12.88;;;8.77;;
4971;SDS011;2501;51.214;6.768;2023-06-24T02:06:39;13.95;;;9.05;;
4971;SDS011;2501;51.214;6.768;2023-06-24T02:09:09;9.65;;;8.65;;
4971;SDS011;2501;51.214;6.768;2023-06-24T02:11:39;9.77;;;8.65;;
4971;SDS011;2501;51.214;6.768;2023-06-24T02:14:08;12.23;;;9.40;;
4971;SDS011;2501;51.214;6.768;2023-06-24T02:16:39;15.60;;;9.53;;
4971;SDS011;2501;51.214;6.768;2023-06-24T02:19:13;15.95;;;9.60;;
4971;SDS011;2501;51.214;6.768;2023-06-24T02:21:43;13.60;;;9.35;;
4971;SDS011;2501;51.214;6.768;2023-06-24T02:24:12;14.02;;;8.80;;
4971;SDS011;2501;51.214;6.768;2023-06-24T02:26:42;10.23;;;9.20;;
4971;SDS011;2501;51.214;6.768;2023-06-24T02:29:10;12.98;;;9.10;;
4971;SDS011;2501;51.214;6.768;2023-06-24T02:31:41;12.02;;;9.70;;
4971;SDS011;2501;51.214;6.768;2023-06-24T02:34:09;11.07;;;9.30;;
4971;SDS011;2501;51.214;6.768;2023-06-24T02:36:40;10.65;;;8.80;;
4971;SDS011;2501;51.214;6.768;2023-06-24T02:39:09;13.07;;;8.85;;
4971;SDS011;2501;51.214;6.768;2023-06-24T02:41:37;13.93;;;8.50;;
4971;SDS011;2501;51.214;6.768;2023-06-24T02:44:06;10.07;;;8.30;;
4971;SDS011;2501;51.214;6.768;2023-06-24T02:46:34;10.77;;;8.60;;
4971;SDS011;2501;51.214;6.768;2023-06-24T02:49:04;11.43;;;9.32;;
4971;SDS011;2501;51.214;6.768;2023-06-24T02:51:33;11.82;;;9.20;;
4971;SDS011;2501;51.214;6.768;2023-06-24T02:54:05;12.57;;;9.20;;
4971;SDS011;2501;51.214;6.768;2023-06-24T02:56:34;12.77;;;8.85;;
4971;SDS011;2501;51.214;6.768;2023-06-24T02:59:06;16.60;;;8.93;;
4971;SDS011;2501;51.214;6.768;2023-06-24T03:01:35;11.88;;;9.20;;
4971;SDS011;2501;51.214;6.768;2023-06-24T03:04:10;13.75;;;8.60;;
4971;SDS011;2501;51.214;6.768;2023-06-24T03:06:38;12.48;;;8.82;;
4971;SDS011;2501;51.214;6.768;2023-06-24T03:09:11;12.33;;;8.40;;
4971;SDS011;2501;51.214;6.768;2023-06-24T03:11:40;13.25;;;9.27;;
4971;SDS011;2501;51.214;6.768;2023-06-24T03:14:09;11.50;;;8.40;;
4971;SDS011;2501;51.214;6.768;2023-06-24T03:16:38;12.33;;;9.20;;
4971;SDS011;2501;51.214;6.768;2023-06-24T03:19:07;10.85;;;9.32;;
4971;SDS011;2501;51.214;6.768;2023-06-24T03:21:36;19.02;;;9.70;;
4971;SDS011;2501;51.214;6.768;2023-06-24T03:24:04;15.70;;;9.55;;
4971;SDS011;2501;51.214;6.768;2023-06-24T03:26:37;11.73;;;8.85;;
4971;SDS011;2501;51.214;6.768;2023-06-24T03:29:06;11.50;;;9.55;;
4971;SDS011;2501;51.214;6.768;2023-06-24T03:31:35;18.33;;;9.30;;
4971;SDS011;2501;51.214;6.768;2023-06-24T03:34:10;10.77;;;8.90;;
4971;SDS011;2501;51.214;6.768;2023-06-24T03:36:39;12.50;;;9.20;;
4971;SDS011;2501;51.214;6.768;2023-06-24T03:39:07;14.60;;;9.35;;
4971;SDS011;2501;51.214;6.768;2023-06-24T03:41:38;13.00;;;9.68;;
4971;SDS011;2501;51.214;6.768;2023-06-24T03:44:07;10.90;;;9.38;;
4971;SDS011;2501;51.214;6.768;2023-06-24T03:46:35;14.88;;;10.05;;
4971;SDS011;2501;51.214;6.768;2023-06-24T03:49:04;14.18;;;10.23;;
4971;SDS011;2501;51.214;6.768;2023-06-24T03:51:32;13.50;;;9.38;;
4971;SDS011;2501;51.214;6.768;2023-06-24T03:54:01;14.75;;;9.82;;
4971;SDS011;2501;51.214;6.768;2023-06-24T03:56:29;13.63;;;9.88;;
4971;SDS011;2501;51.214;6.768;2023-06-24T03:59:00;19.52;;;10.48;;
4971;SDS011;2501;51.214;6.768;2023-06-24T04:01:28;16.70;;;9.90;;
4971;SDS011;2501;51.214;6.768;2023-06-24T04:03:57;13.50;;;10.27;;
4971;SDS011;2501;51.214;6.768;2023-06-24T04:06:26;12.73;;;10.57;;
4971;SDS011;2501;51.214;6.768;2023-06-24T04:08:54;10.60;;;9.50;;
4971;SDS011;2501;51.214;6.768;2023-06-24T04:11:23;11.95;;;10.65;;
4971;SDS011;2501;51.214;6.768;2023-06-24T04:13:52;18.17;;;11.43;;
4971;SDS011;2501;51.214;6.768;2023-06-24T04:16:23;14.90;;;11.20;;
4971;SDS011;2501;51.214;6.768;2023-06-24T04:18:51;14.55;;;11.05;;
4971;SDS011;2501;51.214;6.768;2023-06-24T04:21:20;17.38;;;12.48;;
4971;SDS011;2501;51.214;6.768;2023-06-24T04:23:48;18.67;;;11.87;;
4971;SDS011;2501;51.214;6.768;2023-06-24T04:26:16;16.90;;;11.60;;
4971;SDS011;2501;51.214;6.768;2023-06-24T04:28:45;14.52;;;11.95;;
4971;SDS011;2501;51.214;6.768;2023-06-24T04:31:13;16.10;;;11.70;;
4971;SDS011;2501;51.214;6.768;2023-06-24T04:33:44;15.18;;;11.00;;
4971;SDS011;2501;51.214;6.768;2023-06-24T04:36:13;17.48;;;11.38;;
4971;SDS011;2501;51.214;6.768;2023-06-24T04:38:41;16.05;;;12.35;;
4971;SDS011;2501;51.214;6.768;2023-06-24T04:41:10;16.10;;;12.80;;
4971;SDS011;2501;51.214;6.768;2023-06-24T04:43:38;23.02;;;12.35;;
4971;SDS011;2501;51.214;6.768;2023-06-24T04:46:06;16.45;;;12.10;;
4971;SDS011;2501;51.214;6.768;2023-06-24T04:48:35;15.63;;;11.90;;
4971;SDS011;2501;51.214;6.768;2023-06-24T04:51:06;16.07;;;12.47;;
4971;SDS011;2501;51.214;6.768;2023-06-24T04:53:34;18.60;;;12.38;;
4971;SDS011;2501;51.214;6.768;2023-06-24T04:56:03;16.60;;;12.60;;
4971;SDS011;2501;51.214;6.768;2023-06-24T04:58:31;18.83;;;12.75;;
4971;SDS011;2501;51.214;6.768;2023-06-24T05:01:00;17.42;;;12.30;;
4971;SDS011;2501;51.214;6.768;2023-06-24T05:03:28;17.45;;;13.43;;
4971;SDS011;2501;51.214;6.768;2023-06-24T05:05:56;16.73;;;12.80;;
4971;SDS011;2501;51.214;6.768;2023-06-24T05:08:27;16.30;;;13.02;;
4971;SDS011;2501;51.214;6.768;2023-06-24T05:10:56;18.27;;;13.02;;
4971;SDS011;2501;51.214;6.768;2023-06-24T05:13:24;17.70;;;12.35;;
4971;SDS011;2501;51.214;6.768;2023-06-24T05:15:54;18.67;;;13.63;;
4971;SDS011;2501;51.214;6.768;2023-06-24T05:18:23;17.30;;;12.52;;
4971;SDS011;2501;51.214;6.768;2023-06-24T05:20:51;16.83;;;12.90;;
4971;SDS011;2501;51.214;6.768;2023-06-24T05:23:20;15.90;;;12.70;;
4971;SDS011;2501;51.214;6.768;2023-06-24T05:25:51;22.92;;;12.20;;
4971;SDS011;2501;51.214;6.768;2023-06-24T05:28:19;18.45;;;13.40;;
4971;SDS011;2501;51.214;6.768;2023-06-24T05:30:48;21.10;;;13.68;;
4971;SDS011;2501;51.214;6.768;2023-06-24T05:33:16;14.90;;;12.45;;
4971;SDS011;2501;51.214;6.768;2023-06-24T05:35:45;18.63;;;13.02;;
4971;SDS011;2501;51.214;6.768;2023-06-24T05:38:14;24.42;;;13.70;;
4971;SDS011;2501;51.214;6.768;2023-06-24T05:40:43;16.95;;;13.35;;
4971;SDS011;2501;51.214;6.768;2023-06-24T05:43:16;21.58;;;13.40;;
4971;SDS011;2501;51.214;6.768;2023-06-24T05:45:44;15.75;;;12.95;;
4971;SDS011;2501;51.214;6.768;2023-06-24T05:48:13;18.40;;;12.70;;
4971;SDS011;2501;51.214;6.768;2023-06-24T05:50:42;16.27;;;12.02;;
4971;SDS011;2501;51.214;6.768;2023-06-24T05:53:10;21.40;;;13.68;;
4971;SDS011;2501;51.214;6.768;2023-06-24T05:55:38;22.00;;;13.50;;
4971;SDS011;2501;51.214;6.768;2023-06-24T05:58:07;19.70;;;13.10;;
4971;SDS011;2501;51.214;6.768;2023-06-24T06:00:38;22.92;;;13.55;;
4971;SDS011;2501;51.214;6.768;2023-06-24T06:03:07;23.15;;;14.30;;
4971;SDS011;2501;51.214;6.768;2023-06-24T06:05:35;22.38;;;13.15;;
4971;SDS011;2501;51.214;6.768;2023-06-24T06:08:04;22.38;;;12.85;;
4971;SDS011;2501;51.214;6.768;2023-06-24T06:10:32;20.88;;;12.98;;
4971;SDS011;2501;51.214;6.768;2023-06-24T06:13:01;25.80;;;14.40;;
4971;SDS011;2501;51.214;6.768;2023-06-24T06:15:30;22.48;;;14.50;;
4971;SDS011;2501;51.214;6.768;2023-06-24T06:18:01;24.45;;;14.88;;
4971;SDS011;2501;51.214;6.768;2023-06-24T06:20:29;20.17;;;13.57;;
4971;SDS011;2501;51.214;6.768;2023-06-24T06:22:57;19.75;;;13.70;;
4971;SDS011;2501;51.214;6.768;2023-06-24T06:25:26;21.95;;;13.32;;
4971;SDS011;2501;51.214;6.768;2023-06-24T06:27:54;16.90;;;12.88;;
4971;SDS011;2501;51.214;6.768;2023-06-24T06:30:23;21.50;;;14.63;;
4971;SDS011;2501;51.214;6.768;2023-06-24T06:32:51;20.85;;;12.70;;
4971;SDS011;2501;51.214;6.768;2023-06-24T06:35:22;20.63;;;13.18;;
4971;SDS011;2501;51.214;6.768;2023-06-24T06:37:51;22.20;;;12.50;;
4971;SDS011;2501;51.214;6.768;2023-06-24T06:40:20;19.80;;;13.38;;
4971;SDS011;2501;51.214;6.768;2023-06-24T06:42:49;23.60;;;14.00;;
4971;SDS011;2501;51.214;6.768;2023-06-24T06:45:18;25.30;;;13.43;;
4971;SDS011;2501;51.214;6.768;2023-06-24T06:47:47;23.33;;;14.00;;
4971;SDS011;2501;51.214;6.768;2023-06-24T06:50:17;19.17;;;11.90;;
4971;SDS011;2501;51.214;6.768;2023-06-24T06:52:48;22.42;;;11.48;;
4971;SDS011;2501;51.214;6.768;2023-06-24T06:55:16;17.90;;;11.70;;
4971;SDS011;2501;51.214;6.768;2023-06-24T06:57:45;16.60;;;11.10;;
4971;SDS011;2501;51.214;6.768;2023-06-24T07:00:14;14.98;;;11.10;;
4971;SDS011;2501;51.214;6.768;2023-06-24T07:02:43;14.77;;;10.32;;
4971;SDS011;2501;51.214;6.768;2023-06-24T07:05:11;20.48;;;11.40;;
4971;SDS011;2501;51.214;6.768;2023-06-24T07:07:39;16.42;;;10.25;;
4971;SDS011;2501;51.214;6.768;2023-06-24T07:10:13;18.70;;;9.80;;
4971;SDS011;2501;51.214;6.768;2023-06-24T07:12:42;15.50;;;9.85;;
4971;SDS011;2501;51.214;6.768;2023-06-24T07:15:10;17.63;;;9.50;;
4971;SDS011;2501;51.214;6.768;2023-06-24T07:17:39;17.05;;;9.38;;
4971;SDS011;2501;51.214;6.768;2023-06-24T07:20:08;16.50;;;9.35;;
4971;SDS011;2501;51.214;6.768;2023-06-24T07:22:37;15.50;;;9.02;;
4971;SDS011;2501;51.214;6.768;2023-06-24T07:25:06;17.38;;;9.80;;
4971;SDS011;2501;51.214;6.768;2023-06-24T07:27:37;13.75;;;9.30;;
4971;SDS011;2501;51.214;6.768;2023-06-24T07:30:06;16.23;;;9.32;;
4971;SDS011;2501;51.214;6.768;2023-06-24T07:32:36;16.35;;;8.50;;
4971;SDS011;2501;51.214;6.768;2023-06-24T07:35:05;15.65;;;8.38;;
4971;SDS011;2501;51.214;6.768;2023-06-24T07:37:34;16.08;;;9.20;;
4971;SDS011;2501;51.214;6.768;2023-06-24T07:40:04;14.33;;;8.70;;
4971;SDS011;2501;51.214;6.768;2023-06-24T07:42:33;15.18;;;8.30;;
4971;SDS011;2501;51.214;6.768;2023-06-24T07:45:05;14.88;;;8.10;;
4971;SDS011;2501;51.214;6.768;2023-06-24T07:47:34;16.90;;;8.75;;
4971;SDS011;2501;51.214;6.768;2023-06-24T07:50:03;15.60;;;8.00;;
4971;SDS011;2501;51.214;6.768;2023-06-24T07:52:31;11.53;;;7.93;;
4971;SDS011;2501;51.214;6.768;2023-06-24T07:55:00;7.60;;;6.80;;
4971;SDS011;2501;51.214;6.768;2023-06-24T07:57:28;11.90;;;7.50;;
4971;SDS011;2501;51.214;6.768;2023-06-24T07:59:57;10.55;;;6.75;;
4971;SDS011;2501;51.214;6.768;2023-06-24T08:02:28;12.77;;;7.67;;
4971;SDS011;2501;51.214;6.768;2023-06-24T08:04:57;13.50;;;6.90;;
4971;SDS011;2501;51.214;6.768;2023-06-24T08:07:25;11.18;;;6.97;;
4971;SDS011;2501;51.214;6.768;2023-06-24T08:09:53;8.23;;;5.60;;
4971;SDS011;2501;51.214;6.768;2023-06-24T08:12:22;8.25;;;5.30;;
4971;SDS011;2501;51.214;6.768;2023-06-24T08:14:50;10.10;;;6.35;;
4971;SDS011;2501;51.214;6.768;2023-06-24T08:17:19;8.73;;;7.30;;
4971;SDS011;2501;51.214;6.768;2023-06-24T08:19:50;15.15;;;8.20;;
4971;SDS011;2501;51.214;6.768;2023-06-24T08:22:18;14.55;;;8.60;;
4971;SDS011;2501;51.214;6.768;2023-06-24T08:24:47;13.75;;;8.65;;
4971;SDS011;2501;51.214;6.768;2023-06-24T08:27:15;10.40;;;7.40;;
4971;SDS011;2501;51.214;6.768;2023-06-24T08:29:43;15.27;;;9.60;;
4971;SDS011;2501;51.214;6.768;2023-06-24T08:32:12;12.85;;;8.95;;
4971;SDS011;2501;51.214;6.768;2023-06-24T08:34:40;11.40;;;7.83;;
4971;SDS011;2501;51.214;6.768;2023-06-24T08:37:12;12.67;;;8.33;;
4971;SDS011;2501;51.214;6.768;2023-06-24T08:39:40;14.77;;;8.05;;
4971;SDS011;2501;51.214;6.768;2023-06-24T08:42:09;16.33;;;9.50;;
4971;SDS011;2501;51.214;6.768;2023-06-24T08:44:37;19.70;;;10.57;;
4971;SDS011;2501;51.214;6.768;2023-06-24T08:47:05;17.00;;;10.10;;
4971;SDS011;2501;51.214;6.768;2023-06-24T08:49:35;12.57;;;8.90;;
4971;SDS011;2501;51.214;6.768;2023-06-24T08:52:14;12.90;;;8.40;;
4971;SDS011;2501;51.214;6.768;2023-06-24T08:54:46;15.20;;;8.50;;
4971;SDS011;2501;51.214;6.768;2023-06-24T08:57:16;12.80;;;8.90;;
4971;SDS011;2501;51.214;6.768;2023-06-24T08:59:45;9.77;;;7.83;;
4971;SDS011;2501;51.214;6.768;2023-06-24T09:02:14;14.27;;;8.35;;
4971;SDS011;2501;51.214;6.768;2023-06-24T09:04:42;12.15;;;7.60;;
4971;SDS011;2501;51.214;6.768;2023-06-24T09:07:10;16.70;;;9.87;;
4971;SDS011;2501;51.214;6.768;2023-06-24T09:09:51;15.20;;;9.32;;
4971;SDS011;2501;51.214;6.768;2023-06-24T09:12:19;12.40;;;8.57;;
4971;SDS011;2501;51.214;6.768;2023-06-24T09:14:48;19.40;;;7.67;;
4971;SDS011;2501;51.214;6.768;2023-06-24T09:17:18;10.55;;;7.43;;
4971;SDS011;2501;51.214;6.768;2023-06-24T09:19:48;9.55;;;7.20;;
4971;SDS011;2501;51.214;6.768;2023-06-24T09:22:19;10.18;;;6.55;;
4971;SDS011;2501;51.214;6.768;2023-06-24T09:24:47;10.32;;;6.03;;
4971;SDS011;2501;51.214;6.768;2023-06-24T09:27:17;12.38;;;6.72;;
4971;SDS011;2501;51.214;6.768;2023-06-24T09:29:47;10.75;;;6.53;;
4971;SDS011;2501;51.214;6.768;2023-06-24T09:32:15;14.07;;;6.57;;
4971;SDS011;2501;51.214;6.768;2023-06-24T09:34:44;11.47;;;6.13;;
4971;SDS011;2501;51.214;6.768;2023-06-24T09:37:13;8.70;;;5.90;;
4971;SDS011;2501;51.214;6.768;2023-06-24T09:39:56;7.72;;;6.10;;
4971;SDS011;2501;51.214;6.768;2023-06-24T09:42:26;10.15;;;6.55;;
4971;SDS011;2501;51.214;6.768;2023-06-24T09:44:55;11.88;;;6.00;;
4971;SDS011;2501;51.214;6.768;2023-06-24T09:47:24;14.45;;;7.97;;
4971;SDS011;2501;51.214;6.768;2023-06-24T09:49:53;10.60;;;7.75;;
4971;SDS011;2501;51.214;6.768;2023-06-24T09:52:25;16.45;;;8.45;;
4971;SDS011;2501;51.214;6.768;2023-06-24T09:54:54;9.88;;;6.75;;
4971;SDS011;2501;51.214;6.768;2023-06-24T09:57:24;7.80;;;5.38;;
4971;SDS011;2501;51.214;6.768;2023-06-24T09:59:56;13.73;;;6.60;;
4971;SDS011;2501;51.214;6.768;2023-06-24T10:02:27;11.55;;;6.90;;
4971;SDS011;2501;51.214;6.768;2023-06-24T10:04:57;10.18;;;6.40;;
4971;SDS011;2501;51.214;6.768;2023-06-24T10:07:30;9.30;;;6.15;;
4971;SDS011;2501;51.214;6.768;2023-06-24T10:10:04;28.02;;;13.13;;
4971;SDS011;2501;51.214;6.768;2023-06-24T10:12:34;12.83;;;7.83;;
4971;SDS011;2501;51.214;6.768;2023-06-24T10:15:04;10.43;;;7.10;;
4971;SDS011;2501;51.214;6.768;2023-06-24T10:17:34;11.53;;;6.43;;
4971;SDS011;2501;51.214;6.768;2023-06-24T10:20:06;7.63;;;5.72;;
4971;SDS011;2501;51.214;6.768;2023-06-24T10:22:37;9.88;;;6.60;;
4971;SDS011;2501;51.214;6.768;2023-06-24T10:25:06;7.40;;;5.10;;
4971;SDS011;2501;51.214;6.768;2023-06-24T10:27:38;14.67;;;7.97;;
4971;SDS011;2501;51.214;6.768;2023-06-24T10:30:08;14.05;;;8.35;;
4971;SDS011;2501;51.214;6.768;2023-06-24T10:32:44;10.65;;;6.95;;
4971;SDS011;2501;51.214;6.768;2023-06-24T10:35:22;15.98;;;8.80;;
4971;SDS011;2501;51.214;6.768;2023-06-24T10:37:58;11.05;;;6.03;;
4971;SDS011;2501;51.214;6.768;2023-06-24T10:40:34;9.20;;;5.45;;
4971;SDS011;2501;51.214;6.768;2023-06-24T10:43:22;6.43;;;4.82;;
4971;SDS011;2501;51.214;6.768;2023-06-24T10:45:55;5.25;;;4.75;;
4971;SDS011;2501;51.214;6.768;2023-06-24T10:48:24;6.15;;;4.85;;
4971;SDS011;2501;51.214;6.768;2023-06-24T10:50:53;10.07;;;5.10;;
4971;SDS011;2501;51.214;6.768;2023-06-24T10:53:24;4.90;;;4.20;;
4971;SDS011;2501;51.214;6.768;2023-06-24T10:55:52;6.65;;;4.97;;
4971;SDS011;2501;51.214;6.768;2023-06-24T10:58:26;6.28;;;4.50;;
4971;SDS011;2501;51.214;6.768;2023-06-24T11:01:05;5.20;;;4.00;;
4971;SDS011;2501;51.214;6.768;2023-06-24T11:03:34;7.75;;;5.28;;
4971;SDS011;2501;51.214;6.768;2023-06-24T11:06:03;6.45;;;4.68;;
4971;SDS011;2501;51.214;6.768;2023-06-24T11:08:35;6.85;;;4.50;;
4971;SDS011;2501;51.214;6.768;2023-06-24T11:11:18;4.05;;;3.65;;
4971;SDS011;2501;51.214;6.768;2023-06-24T11:13:47;8.18;;;5.00;;
4971;SDS011;2501;51.214;6.768;2023-06-24T11:16:20;9.07;;;4.90;;
4971;SDS011;2501;51.214;6.768;2023-06-24T11:18:49;7.30;;;4.63;;
4971;SDS011;2501;51.214;6.768;2023-06-24T11:21:17;5.10;;;4.55;;
4971;SDS011;2501;51.214;6.768;2023-06-24T11:23:48;7.75;;;4.60;;
4971;SDS011;2501;51.214;6.768;2023-06-24T11:26:17;6.00;;;4.90;;
4971;SDS011;2501;51.214;6.768;2023-06-24T11:28:47;5.68;;;4.45;;
4971;SDS011;2501;51.214;6.768;2023-06-24T11:31:17;10.00;;;5.38;;
4971;SDS011;2501;51.214;6.768;2023-06-24T11:33:48;8.10;;;5.43;;
4971;SDS011;2501;51.214;6.768;2023-06-24T11:36:16;8.13;;;5.43;;
4971;SDS011;2501;51.214;6.768;2023-06-24T11:38:45;15.27;;;8.73;;
4971;SDS011;2501;51.214;6.768;2023-06-24T11:41:20;7.28;;;5.20;;
4971;SDS011;2501;51.214;6.768;2023-06-24T11:43:51;3.58;;;3.33;;
4971;SDS011;2501;51.214;6.768;2023-06-24T11:46:23;6.85;;;4.00;;
4971;SDS011;2501;51.214;6.768;2023-06-24T11:48:52;4.78;;;3.83;;
4971;SDS011;2501;51.214;6.768;2023-06-24T11:51:22;9.85;;;3.80;;
4971;SDS011;2501;51.214;6.768;2023-06-24T11:53:51;5.60;;;4.30;;
4971;SDS011;2501;51.214;6.768;2023-06-24T11:56:33;8.70;;;4.25;;
4971;SDS011;2501;51.214;6.768;2023-06-24T11:59:03;7.20;;;4.95;;
4971;SDS011;2501;51.214;6.768;2023-06-24T12:01:32;5.70;;;4.63;;
4971;SDS011;2501;51.214;6.768;2023-06-24T12:04:09;7.13;;;5.07;;
4971;SDS011;2501;51.214;6.768;2023-06-24T12:06:38;7.15;;;4.63;;
4971;SDS011;2501;51.214;6.768;2023-06-24T12:09:07;4.93;;;4.30;;
4971;SDS011;2501;51.214;6.768;2023-06-24T12:11:38;7.28;;;3.88;;
4971;SDS011;2501;51.214;6.768;2023-06-24T12:14:07;3.30;;;2.90;;
4971;SDS011;2501;51.214;6.768;2023-06-24T12:16:35;5.47;;;2.70;;
4971;SDS011;2501;51.214;6.768;2023-06-24T12:19:04;3.90;;;2.90;;
4971;SDS011;2501;51.214;6.768;2023-06-24T12:21:32;5.30;;;3.70;;
4971;SDS011;2501;51.214;6.768;2023-06-24T12:24:01;3.88;;;3.47;;
4971;SDS011;2501;51.214;6.768;2023-06-24T12:26:30;3.57;;;3.27;;
4971;SDS011;2501;51.214;6.768;2023-06-24T12:29:01;4.53;;;3.25;;
4971;SDS011;2501;51.214;6.768;2023-06-24T12:31:30;6.22;;;3.55;;
4971;SDS011;2501;51.214;6.768;2023-06-24T12:33:58;4.90;;;3.20;;
4971;SDS011;2501;51.214;6.768;2023-06-24T12:36:27;4.20;;;3.00;;
4971;SDS011;2501;51.214;6.768;2023-06-24T12:38:55;3.43;;;3.23;;
4971;SDS011;2501;51.214;6.768;2023-06-24T12:41:24;3.33;;;3.03;;
4971;SDS011;2501;51.214;6.768;2023-06-24T12:43:53;2.85;;;2.55;;
4971;SDS011;2501;51.214;6.768;2023-06-24T12:46:24;3.08;;;2.88;;
4971;SDS011;2501;51.214;6.768;2023-06-24T12:48:52;3.35;;;2.72;;
4971;SDS011;2501;51.214;6.768;2023-06-24T12:51:21;3.15;;;2.80;;
4971;SDS011;2501;51.214;6.768;2023-06-24T12:53:50;6.68;;;3.58;;
4971;SDS011;2501;51.214;6.768;2023-06-24T12:56:18;3.50;;;3.20;;
4971;SDS011;2501;51.214;6.768;2023-06-24T12:58:46;4.03;;;3.10;;
4971;SDS011;2501;51.214;6.768;2023-06-24T13:01:15;3.13;;;2.92;;
4971;SDS011;2501;51.214;6.768;2023-06-24T13:03:46;3.35;;;3.05;;
4971;SDS011;2501;51.214;6.768;2023-06-24T13:06:14;2.83;;;2.50;;
4971;SDS011;2501;51.214;6.768;2023-06-24T13:08:43;2.40;;;2.20;;
4971;SDS011;2501;51.214;6.768;2023-06-24T13:11:12;5.13;;;2.60;;
4971;SDS011;2501;51.214;6.768;2023-06-24T13:13:41;4.10;;;3.28;;
4971;SDS011;2501;51.214;6.768;2023-06-24T13:16:09;2.10;;;1.90;;
4971;SDS011;2501;51.214;6.768;2023-06-24T13:18:38;2.55;;;2.35;;
4971;SDS011;2501;51.214;6.768;2023-06-24T13:21:09;2.20;;;2.10;;
4971;SDS011;2501;51.214;6.768;2023-06-24T13:23:37;2.10;;;2.00;;
4971;SDS011;2501;51.214;6.768;2023-06-24T13:26:06;2.20;;;2.10;;
4971;SDS011;2501;51.214;6.768;2023-06-24T13:28:36;2.67;;;2.47;;
4971;SDS011;2501;51.214;6.768;2023-06-24T13:31:04;2.60;;;2.40;;
4971;SDS011;2501;51.214;6.768;2023-06-24T13:33:33;2.30;;;2.15;;
4971;SDS011;2501;51.214;6.768;2023-06-24T13:36:01;3.40;;;2.38;;
4971;SDS011;2501;51.214;6.768;2023-06-24T13:38:33;2.30;;;2.10;;
4971;SDS011;2501;51.214;6.768;2023-06-24T13:41:01;2.60;;;2.40;;
4971;SDS011;2501;51.214;6.768;2023-06-24T13:43:29;2.78;;;1.90;;
4971;SDS011;2501;51.214;6.768;2023-06-24T13:45:58;1.90;;;1.80;;
4971;SDS011;2501;51.214;6.768;2023-06-24T13:48:26;2.30;;;2.20;;
4971;SDS011;2501;51.214;6.768;2023-06-24T13:50:55;3.13;;;1.90;;
4971;SDS011;2501;51.214;6.768;2023-06-24T13:53:23;2.60;;;2.00;;
4971;SDS011;2501;51.214;6.768;2023-06-24T13:55:54;3.33;;;2.70;;
4971;SDS011;2501;51.214;6.768;2023-06-24T13:58:23;2.42;;;2.33;;
4971;SDS011;2501;51.214;6.768;2023-06-24T14:00:51;3.28;;;1.85;;
4971;SDS011;2501;51.214;6.768;2023-06-24T14:03:20;3.00;;;2.80;;
4971;SDS011;2501;51.214;6.768;2023-06-24T14:05:48;2.90;;;2.60;;
4971;SDS011;2501;51.214;6.768;2023-06-24T14:08:17;2.85;;;2.75;;
4971;SDS011;2501;51.214;6.768;2023-06-24T14:10:45;4.90;;;2.30;;
4971;SDS011;2501;51.214;6.768;2023-06-24T14:13:16;2.30;;;2.00;;
4971;SDS011;2501;51.214;6.768;2023-06-24T14:15:45;2.30;;;1.67;;
4971;SDS011;2501;51.214;6.768;2023-06-24T14:18:13;2.60;;;2.00;;
4971;SDS011;2501;51.214;6.768;2023-06-24T14:20:42;2.30;;;2.10;;
4971;SDS011;2501;51.214;6.768;2023-06-24T14:23:10;2.20;;;2.00;;
4971;SDS011;2501;51.214;6.768;2023-06-24T14:25:39;2.60;;;2.40;;
4971;SDS011;2501;51.214;6.768;2023-06-24T14:28:07;3.00;;;2.70;;
4971;SDS011;2501;51.214;6.768;2023-06-24T14:30:38;2.73;;;2.53;;
4971;SDS011;2501;51.214;6.768;2023-06-24T14:33:07;3.63;;;2.13;;
4971;SDS011;2501;51.214;6.768;2023-06-24T14:35:35;2.28;;;2.00;;
4971;SDS011;2501;51.214;6.768;2023-06-24T14:38:04;2.97;;;2.10;;
4971;SDS011;2501;51.214;6.768;2023-06-24T14:40:36;3.35;;;2.40;;
4971;SDS011;2501;51.214;6.768;2023-06-24T14:43:04;2.47;;;2.28;;
4971;SDS011;2501;51.214;6.768;2023-06-24T14:45:33;3.00;;;2.80;;
4971;SDS011;2501;51.214;6.768;2023-06-24T14:48:04;2.60;;;2.40;;
4971;SDS011;2501;51.214;6.768;2023-06-24T14:50:33;2.97;;;2.10;;
4971;SDS011;2501;51.214;6.768;2023-06-24T14:53:02;2.27;;;2.17;;
4971;SDS011;2501;51.214;6.768;2023-06-24T14:55:31;2.00;;;1.90;;
4971;SDS011;2501;51.214;6.768;2023-06-24T14:57:59;5.20;;;2.50;;
4971;SDS011;2501;51.214;6.768;2023-06-24T15:00:28;2.80;;;2.60;;
4971;SDS011;2501;51.214;6.768;2023-06-24T15:02:56;3.17;;;2.40;;
4971;SDS011;2501;51.214;6.768;2023-06-24T15:05:27;2.10;;;2.00;;
4971;SDS011;2501;51.214;6.768;2023-06-24T15:07:58;2.10;;;2.00;;
4971;SDS011;2501;51.214;6.768;2023-06-24T15:10:26;2.10;;;2.00;;
4971;SDS011;2501;51.214;6.768;2023-06-24T15:12:55;2.77;;;2.57;;
4971;SDS011;2501;51.214;6.768;2023-06-24T15:15:23;2.50;;;2.30;;
4971;SDS011;2501;51.214;6.768;2023-06-24T15:17:52;2.70;;;2.50;;
4971;SDS011;2501;51.214;6.768;2023-06-24T15:20:20;3.63;;;2.22;;